sensor_id;sensor_type;location;lat;lon;timestamp;P1;durP1;ratioP1;P2;durP2;ratioP2
13807;SDS011;40769;51.512;5.494;2022-12-19T00:03:44;21.20;;;17.97;;
13807;SDS011;40769;51.512;5.494;2022-12-19T00:06:12;18.43;;;16.47;;
13807;SDS011;40769;51.512;5.494;2022-12-19T00:08:42;20.03;;;17.67;;
13807;SDS011;40769;51.512;5.494;2022-12-19T00:11:09;20.90;;;17.93;;
13807;SDS011;40769;51.512;5.494;2022-12-19T00:13:36;19.50;;;16.73;;
13807;SDS011;40769;51.512;5.494;2022-12-19T00:16:06;21.00;;;18.77;;
13807;SDS011;40769;51.512;5.494;2022-12-19T00:18:34;21.33;;;19.03;;
13807;SDS011;40769;51.512;5.494;2022-12-19T00:21:02;17.70;;;15.83;;
13807;SDS011;40769;51.512;5.494;2022-12-19T00:23:29;21.40;;;18.83;;
13807;SDS011;40769;51.512;5.494;2022-12-19T00:26:10;24.00;;;20.70;;
13807;SDS011;40769;51.512;5.494;2022-12-19T00:28:40;18.70;;;16.70;;
13807;SDS011;40769;51.512;5.494;2022-12-19T00:31:07;19.83;;;17.33;;
13807;SDS011;40769;51.512;5.494;2022-12-19T00:33:36;21.00;;;18.77;;
13807;SDS011;40769;51.512;5.494;2022-12-19T00:36:03;21.13;;;18.83;;
13807;SDS011;40769;51.512;5.494;2022-12-19T00:38:31;20.27;;;16.47;;
13807;SDS011;40769;51.512;5.494;2022-12-19T00:43:45;18.47;;;16.37;;
13807;SDS011;40769;51.512;5.494;2022-12-19T00:46:14;19.30;;;17.10;;
13807;SDS011;40769;51.512;5.494;2022-12-19T00:48:40;22.23;;;19.20;;
13807;SDS011;40769;51.512;5.494;2022-12-19T00:51:09;20.10;;;17.70;;
13807;SDS011;40769;51.512;5.494;2022-12-19T00:53:36;19.27;;;17.17;;
13807;SDS011;40769;51.512;5.494;2022-12-19T00:56:03;20.00;;;17.90;;
13807;SDS011;40769;51.512;5.494;2022-12-19T00:58:30;19.67;;;17.27;;
13807;SDS011;40769;51.512;5.494;2022-12-19T01:00:56;22.43;;;19.97;;
13807;SDS011;40769;51.512;5.494;2022-12-19T01:03:22;16.63;;;14.57;;
13807;SDS011;40769;51.512;5.494;2022-12-19T01:05:49;21.10;;;17.73;;
13807;SDS011;40769;51.512;5.494;2022-12-19T01:08:16;22.63;;;18.57;;
13807;SDS011;40769;51.512;5.494;2022-12-19T01:10:45;20.87;;;17.63;;
13807;SDS011;40769;51.512;5.494;2022-12-19T01:13:12;21.17;;;18.97;;
13807;SDS011;40769;51.512;5.494;2022-12-19T01:15:38;18.57;;;16.50;;
13807;SDS011;40769;51.512;5.494;2022-12-19T01:18:05;19.87;;;17.00;;
13807;SDS011;40769;51.512;5.494;2022-12-19T01:20:36;19.93;;;17.30;;
13807;SDS011;40769;51.512;5.494;2022-12-19T01:23:06;15.50;;;13.90;;
13807;SDS011;40769;51.512;5.494;2022-12-19T01:25:34;19.03;;;17.10;;
13807;SDS011;40769;51.512;5.494;2022-12-19T01:28:01;21.43;;;18.27;;
13807;SDS011;40769;51.512;5.494;2022-12-19T01:30:28;20.10;;;17.37;;
13807;SDS011;40769;51.512;5.494;2022-12-19T01:32:54;16.37;;;14.10;;
13807;SDS011;40769;51.512;5.494;2022-12-19T01:35:21;17.27;;;15.47;;
13807;SDS011;40769;51.512;5.494;2022-12-19T01:37:46;16.17;;;13.93;;
13807;SDS011;40769;51.512;5.494;2022-12-19T01:40:13;19.37;;;17.23;;
13807;SDS011;40769;51.512;5.494;2022-12-19T01:42:39;19.50;;;17.37;;
13807;SDS011;40769;51.512;5.494;2022-12-19T01:47:42;20.00;;;17.70;;
13807;SDS011;40769;51.512;5.494;2022-12-19T01:50:14;20.13;;;17.90;;
13807;SDS011;40769;51.512;5.494;2022-12-19T01:53:02;20.13;;;18.00;;
13807;SDS011;40769;51.512;5.494;2022-12-19T01:55:30;21.13;;;17.70;;
13807;SDS011;40769;51.512;5.494;2022-12-19T01:57:56;17.30;;;15.30;;
13807;SDS011;40769;51.512;5.494;2022-12-19T02:00:24;18.13;;;16.33;;
13807;SDS011;40769;51.512;5.494;2022-12-19T02:02:54;17.07;;;15.27;;
13807;SDS011;40769;51.512;5.494;2022-12-19T02:05:25;19.90;;;17.80;;
13807;SDS011;40769;51.512;5.494;2022-12-19T02:07:51;17.87;;;15.93;;
13807;SDS011;40769;51.512;5.494;2022-12-19T02:10:17;18.73;;;16.73;;
13807;SDS011;40769;51.512;5.494;2022-12-19T02:12:43;17.10;;;15.00;;
13807;SDS011;40769;51.512;5.494;2022-12-19T02:15:10;18.60;;;16.70;;
13807;SDS011;40769;51.512;5.494;2022-12-19T02:31:31;11.70;;;10.50;;
13807;SDS011;40769;51.512;5.494;2022-12-19T02:37:12;15.83;;;14.20;;
13807;SDS011;40769;51.512;5.494;2022-12-19T02:42:04;14.77;;;13.23;;
13807;SDS011;40769;51.512;5.494;2022-12-19T02:44:33;16.33;;;14.63;;
13807;SDS011;40769;51.512;5.494;2022-12-19T02:47:03;17.57;;;13.83;;
13807;SDS011;40769;51.512;5.494;2022-12-19T02:49:34;15.53;;;13.83;;
13807;SDS011;40769;51.512;5.494;2022-12-19T02:54:45;13.43;;;12.03;;
13807;SDS011;40769;51.512;5.494;2022-12-19T02:59:54;16.13;;;14.43;;
13807;SDS011;40769;51.512;5.494;2022-12-19T03:05:30;14.85;;;13.25;;
13807;SDS011;40769;51.512;5.494;2022-12-19T03:08:03;13.40;;;11.97;;
13807;SDS011;40769;51.512;5.494;2022-12-19T03:10:44;15.23;;;13.67;;
13807;SDS011;40769;51.512;5.494;2022-12-19T03:13:42;14.77;;;13.20;;
13807;SDS011;40769;51.512;5.494;2022-12-19T03:16:23;15.07;;;13.53;;
13807;SDS011;40769;51.512;5.494;2022-12-19T03:18:49;17.27;;;14.20;;
13807;SDS011;40769;51.512;5.494;2022-12-19T03:21:26;15.02;;;13.05;;
13807;SDS011;40769;51.512;5.494;2022-12-19T03:23:59;13.18;;;11.77;;
13807;SDS011;40769;51.512;5.494;2022-12-19T03:26:27;13.45;;;12.05;;
13807;SDS011;40769;51.512;5.494;2022-12-19T03:29:01;13.40;;;12.10;;
13807;SDS011;40769;51.512;5.494;2022-12-19T03:31:35;13.60;;;12.13;;
13807;SDS011;40769;51.512;5.494;2022-12-19T03:34:04;13.68;;;12.27;;
13807;SDS011;40769;51.512;5.494;2022-12-19T03:36:41;13.05;;;11.63;;
13807;SDS011;40769;51.512;5.494;2022-12-19T03:39:10;12.27;;;11.07;;
13807;SDS011;40769;51.512;5.494;2022-12-19T03:41:38;10.93;;;9.88;;
13807;SDS011;40769;51.512;5.494;2022-12-19T03:44:26;13.57;;;12.20;;
13807;SDS011;40769;51.512;5.494;2022-12-19T03:47:07;11.82;;;10.63;;
13807;SDS011;40769;51.512;5.494;2022-12-19T03:50:07;10.88;;;9.77;;
13807;SDS011;40769;51.512;5.494;2022-12-19T03:55:09;10.88;;;9.77;;
13807;SDS011;40769;51.512;5.494;2022-12-19T03:57:40;10.80;;;9.80;;
13807;SDS011;40769;51.512;5.494;2022-12-19T04:00:10;11.32;;;10.15;;
13807;SDS011;40769;51.512;5.494;2022-12-19T04:02:40;11.57;;;10.38;;
13807;SDS011;40769;51.512;5.494;2022-12-19T04:05:10;10.82;;;9.73;;
13807;SDS011;40769;51.512;5.494;2022-12-19T04:07:39;10.45;;;9.10;;
13807;SDS011;40769;51.512;5.494;2022-12-19T04:10:06;10.05;;;9.05;;
13807;SDS011;40769;51.512;5.494;2022-12-19T04:12:37;9.95;;;8.95;;
13807;SDS011;40769;51.512;5.494;2022-12-19T04:15:07;9.82;;;8.82;;
13807;SDS011;40769;51.512;5.494;2022-12-19T04:17:38;9.80;;;8.80;;
13807;SDS011;40769;51.512;5.494;2022-12-19T04:20:08;9.80;;;8.75;;
13807;SDS011;40769;51.512;5.494;2022-12-19T04:22:38;7.82;;;7.03;;
13807;SDS011;40769;51.512;5.494;2022-12-19T04:25:09;8.38;;;7.57;;
13807;SDS011;40769;51.512;5.494;2022-12-19T04:27:40;8.48;;;7.65;;
13807;SDS011;40769;51.512;5.494;2022-12-19T04:30:14;8.52;;;7.63;;
13807;SDS011;40769;51.512;5.494;2022-12-19T04:32:41;8.32;;;7.50;;
13807;SDS011;40769;51.512;5.494;2022-12-19T04:35:10;8.20;;;7.40;;
13807;SDS011;40769;51.512;5.494;2022-12-19T04:37:36;8.73;;;7.82;;
13807;SDS011;40769;51.512;5.494;2022-12-19T04:40:03;9.07;;;8.18;;
13807;SDS011;40769;51.512;5.494;2022-12-19T04:42:29;7.28;;;6.60;;
13807;SDS011;40769;51.512;5.494;2022-12-19T04:44:55;8.25;;;7.45;;
13807;SDS011;40769;51.512;5.494;2022-12-19T04:47:21;7.18;;;6.57;;
13807;SDS011;40769;51.512;5.494;2022-12-19T04:49:46;8.13;;;7.32;;
13807;SDS011;40769;51.512;5.494;2022-12-19T04:52:12;8.23;;;7.47;;
13807;SDS011;40769;51.512;5.494;2022-12-19T04:54:38;7.40;;;6.70;;
13807;SDS011;40769;51.512;5.494;2022-12-19T04:57:03;7.78;;;7.03;;
13807;SDS011;40769;51.512;5.494;2022-12-19T04:59:29;7.80;;;7.07;;
13807;SDS011;40769;51.512;5.494;2022-12-19T05:01:56;7.95;;;7.15;;
13807;SDS011;40769;51.512;5.494;2022-12-19T05:04:22;7.40;;;6.70;;
13807;SDS011;40769;51.512;5.494;2022-12-19T05:06:47;6.80;;;6.15;;
13807;SDS011;40769;51.512;5.494;2022-12-19T05:09:13;7.43;;;6.72;;
13807;SDS011;40769;51.512;5.494;2022-12-19T05:11:39;8.20;;;7.40;;
13807;SDS011;40769;51.512;5.494;2022-12-19T05:14:04;7.60;;;6.38;;
13807;SDS011;40769;51.512;5.494;2022-12-19T05:16:30;6.03;;;5.43;;
13807;SDS011;40769;51.512;5.494;2022-12-19T05:18:56;7.18;;;6.57;;
13807;SDS011;40769;51.512;5.494;2022-12-19T05:21:22;6.35;;;5.75;;
13807;SDS011;40769;51.512;5.494;2022-12-19T05:23:48;6.72;;;6.15;;
13807;SDS011;40769;51.512;5.494;2022-12-19T05:26:14;6.07;;;5.47;;
13807;SDS011;40769;51.512;5.494;2022-12-19T05:28:39;7.15;;;6.55;;
13807;SDS011;40769;51.512;5.494;2022-12-19T05:33:32;6.28;;;5.78;;
13807;SDS011;40769;51.512;5.494;2022-12-19T05:35:58;5.90;;;5.40;;
13807;SDS011;40769;51.512;5.494;2022-12-19T05:38:24;5.80;;;5.30;;
13807;SDS011;40769;51.512;5.494;2022-12-19T05:40:50;6.75;;;6.15;;
13807;SDS011;40769;51.512;5.494;2022-12-19T05:43:16;7.05;;;6.35;;
13807;SDS011;40769;51.512;5.494;2022-12-19T05:45:41;5.90;;;5.40;;
13807;SDS011;40769;51.512;5.494;2022-12-19T05:48:07;6.78;;;6.18;;
13807;SDS011;40769;51.512;5.494;2022-12-19T05:50:33;8.23;;;6.10;;
13807;SDS011;40769;51.512;5.494;2022-12-19T05:52:58;6.00;;;5.50;;
13807;SDS011;40769;51.512;5.494;2022-12-19T05:55:24;5.95;;;5.45;;
13807;SDS011;40769;51.512;5.494;2022-12-19T05:57:49;6.57;;;5.90;;
13807;SDS011;40769;51.512;5.494;2022-12-19T06:00:16;6.28;;;5.68;;
13807;SDS011;40769;51.512;5.494;2022-12-19T06:02:42;5.70;;;5.10;;
13807;SDS011;40769;51.512;5.494;2022-12-19T06:05:10;6.47;;;5.88;;
13807;SDS011;40769;51.512;5.494;2022-12-19T06:07:36;6.18;;;5.57;;
13807;SDS011;40769;51.512;5.494;2022-12-19T06:10:02;6.88;;;6.20;;
13807;SDS011;40769;51.512;5.494;2022-12-19T06:12:28;6.25;;;5.65;;
13807;SDS011;40769;51.512;5.494;2022-12-19T06:14:54;6.05;;;5.55;;
13807;SDS011;40769;51.512;5.494;2022-12-19T06:17:20;5.88;;;5.28;;
13807;SDS011;40769;51.512;5.494;2022-12-19T06:19:45;6.32;;;5.72;;
13807;SDS011;40769;51.512;5.494;2022-12-19T06:22:11;5.53;;;5.03;;
13807;SDS011;40769;51.512;5.494;2022-12-19T06:24:37;5.43;;;4.93;;
13807;SDS011;40769;51.512;5.494;2022-12-19T06:27:03;6.63;;;6.03;;
13807;SDS011;40769;51.512;5.494;2022-12-19T06:29:29;5.93;;;5.43;;
13807;SDS011;40769;51.512;5.494;2022-12-19T06:31:54;6.28;;;5.70;;
13807;SDS011;40769;51.512;5.494;2022-12-19T06:34:20;5.75;;;5.18;;
13807;SDS011;40769;51.512;5.494;2022-12-19T06:36:46;5.72;;;5.22;;
13807;SDS011;40769;51.512;5.494;2022-12-19T06:39:12;5.28;;;4.88;;
13807;SDS011;40769;51.512;5.494;2022-12-19T06:41:39;6.10;;;5.50;;
13807;SDS011;40769;51.512;5.494;2022-12-19T06:44:23;5.85;;;5.35;;
13807;SDS011;40769;51.512;5.494;2022-12-19T06:46:50;5.53;;;5.03;;
13807;SDS011;40769;51.512;5.494;2022-12-19T06:49:16;5.60;;;5.05;;
13807;SDS011;40769;51.512;5.494;2022-12-19T06:51:42;5.13;;;4.72;;
13807;SDS011;40769;51.512;5.494;2022-12-19T06:54:11;5.85;;;5.35;;
13807;SDS011;40769;51.512;5.494;2022-12-19T06:56:38;5.20;;;4.80;;
13807;SDS011;40769;51.512;5.494;2022-12-19T06:59:06;5.90;;;5.35;;
13807;SDS011;40769;51.512;5.494;2022-12-19T07:04:38;5.50;;;5.00;;
13807;SDS011;40769;51.512;5.494;2022-12-19T07:07:13;5.85;;;5.30;;
13807;SDS011;40769;51.512;5.494;2022-12-19T07:09:39;5.97;;;5.38;;
13807;SDS011;40769;51.512;5.494;2022-12-19T07:12:05;5.20;;;4.78;;
13807;SDS011;40769;51.512;5.494;2022-12-19T07:14:33;5.60;;;5.20;;
13807;SDS011;40769;51.512;5.494;2022-12-19T07:16:59;5.47;;;4.97;;
13807;SDS011;40769;51.512;5.494;2022-12-19T07:19:25;5.18;;;4.68;;
13807;SDS011;40769;51.512;5.494;2022-12-19T07:21:52;4.65;;;4.25;;
13807;SDS011;40769;51.512;5.494;2022-12-19T07:24:18;5.90;;;5.15;;
13807;SDS011;40769;51.512;5.494;2022-12-19T07:26:44;5.60;;;5.03;;
13807;SDS011;40769;51.512;5.494;2022-12-19T07:29:10;5.30;;;4.80;;
13807;SDS011;40769;51.512;5.494;2022-12-19T07:31:37;4.65;;;4.25;;
13807;SDS011;40769;51.512;5.494;2022-12-19T07:34:02;4.70;;;4.30;;
13807;SDS011;40769;51.512;5.494;2022-12-19T07:36:28;5.47;;;4.97;;
13807;SDS011;40769;51.512;5.494;2022-12-19T07:38:54;5.53;;;5.03;;
13807;SDS011;40769;51.512;5.494;2022-12-19T07:41:19;5.35;;;4.88;;
13807;SDS011;40769;51.512;5.494;2022-12-19T07:43:45;5.07;;;4.68;;
13807;SDS011;40769;51.512;5.494;2022-12-19T07:46:11;4.55;;;4.18;;
13807;SDS011;40769;51.512;5.494;2022-12-19T07:48:37;5.10;;;4.60;;
13807;SDS011;40769;51.512;5.494;2022-12-19T07:51:05;4.88;;;4.47;;
13807;SDS011;40769;51.512;5.494;2022-12-19T07:53:31;4.80;;;4.40;;
13807;SDS011;40769;51.512;5.494;2022-12-19T07:55:56;4.93;;;4.53;;
13807;SDS011;40769;51.512;5.494;2022-12-19T07:58:22;4.82;;;4.43;;
13807;SDS011;40769;51.512;5.494;2022-12-19T08:00:58;4.93;;;4.43;;
13807;SDS011;40769;51.512;5.494;2022-12-19T08:03:27;4.68;;;4.28;;
13807;SDS011;40769;51.512;5.494;2022-12-19T08:06:02;5.05;;;4.63;;
13807;SDS011;40769;51.512;5.494;2022-12-19T08:08:29;4.68;;;4.28;;
13807;SDS011;40769;51.512;5.494;2022-12-19T08:10:55;4.88;;;4.43;;
13807;SDS011;40769;51.512;5.494;2022-12-19T08:13:32;4.72;;;4.32;;
13807;SDS011;40769;51.512;5.494;2022-12-19T08:16:01;5.30;;;4.80;;
13807;SDS011;40769;51.512;5.494;2022-12-19T08:18:27;6.07;;;4.90;;
13807;SDS011;40769;51.512;5.494;2022-12-19T08:20:53;4.82;;;4.43;;
13807;SDS011;40769;51.512;5.494;2022-12-19T08:23:21;4.63;;;4.22;;
13807;SDS011;40769;51.512;5.494;2022-12-19T08:25:47;5.05;;;4.13;;
13807;SDS011;40769;51.512;5.494;2022-12-19T08:28:13;4.57;;;4.25;;
13807;SDS011;40769;51.512;5.494;2022-12-19T08:30:39;4.60;;;4.20;;
13807;SDS011;40769;51.512;5.494;2022-12-19T08:33:06;5.25;;;4.47;;
13807;SDS011;40769;51.512;5.494;2022-12-19T08:35:31;4.75;;;4.35;;
13807;SDS011;40769;51.512;5.494;2022-12-19T08:37:57;4.32;;;4.00;;
13807;SDS011;40769;51.512;5.494;2022-12-19T08:40:23;4.60;;;4.20;;
13807;SDS011;40769;51.512;5.494;2022-12-19T08:42:49;4.57;;;4.18;;
13807;SDS011;40769;51.512;5.494;2022-12-19T08:45:18;4.15;;;3.85;;
13807;SDS011;40769;51.512;5.494;2022-12-19T08:47:43;4.22;;;3.92;;
13807;SDS011;40769;51.512;5.494;2022-12-19T08:50:09;4.20;;;3.80;;
13807;SDS011;40769;51.512;5.494;2022-12-19T08:52:36;4.07;;;3.67;;
13807;SDS011;40769;51.512;5.494;2022-12-19T08:55:02;3.92;;;3.60;;
13807;SDS011;40769;51.512;5.494;2022-12-19T08:57:28;11.85;;;4.18;;
13807;SDS011;40769;51.512;5.494;2022-12-19T08:59:54;4.38;;;4.03;;
13807;SDS011;40769;51.512;5.494;2022-12-19T09:02:19;4.93;;;4.43;;
13807;SDS011;40769;51.512;5.494;2022-12-19T09:04:45;4.22;;;3.83;;
13807;SDS011;40769;51.512;5.494;2022-12-19T09:07:11;4.13;;;3.75;;
13807;SDS011;40769;51.512;5.494;2022-12-19T09:09:37;4.25;;;3.90;;
13807;SDS011;40769;51.512;5.494;2022-12-19T09:12:03;4.10;;;3.78;;
13807;SDS011;40769;51.512;5.494;2022-12-19T09:14:32;3.70;;;3.40;;
13807;SDS011;40769;51.512;5.494;2022-12-19T09:16:58;4.07;;;3.72;;
13807;SDS011;40769;51.512;5.494;2022-12-19T09:19:24;4.25;;;3.95;;
13807;SDS011;40769;51.512;5.494;2022-12-19T09:21:50;3.88;;;3.58;;
13807;SDS011;40769;51.512;5.494;2022-12-19T09:24:15;4.20;;;3.80;;
13807;SDS011;40769;51.512;5.494;2022-12-19T09:26:41;4.00;;;3.70;;
13807;SDS011;40769;51.512;5.494;2022-12-19T09:29:08;3.95;;;3.55;;
13807;SDS011;40769;51.512;5.494;2022-12-19T09:31:34;4.07;;;3.75;;
13807;SDS011;40769;51.512;5.494;2022-12-19T09:34:00;3.75;;;3.30;;
13807;SDS011;40769;51.512;5.494;2022-12-19T09:36:25;3.53;;;3.22;;
13807;SDS011;40769;51.512;5.494;2022-12-19T09:38:54;4.00;;;3.53;;
13807;SDS011;40769;51.512;5.494;2022-12-19T09:46:56;3.92;;;3.58;;
13807;SDS011;40769;51.512;5.494;2022-12-19T09:49:25;3.63;;;3.33;;
13807;SDS011;40769;51.512;5.494;2022-12-19T09:57:11;4.00;;;3.60;;
13807;SDS011;40769;51.512;5.494;2022-12-19T09:59:50;3.92;;;3.22;;
13807;SDS011;40769;51.512;5.494;2022-12-19T10:07:44;3.70;;;3.40;;
13807;SDS011;40769;51.512;5.494;2022-12-19T10:10:14;3.70;;;3.40;;
13807;SDS011;40769;51.512;5.494;2022-12-19T10:15:42;3.38;;;3.08;;
13807;SDS011;40769;51.512;5.494;2022-12-19T10:21:06;3.88;;;3.47;;
13807;SDS011;40769;51.512;5.494;2022-12-19T10:23:44;3.65;;;3.35;;
13807;SDS011;40769;51.512;5.494;2022-12-19T10:26:18;3.80;;;3.50;;
13807;SDS011;40769;51.512;5.494;2022-12-19T10:28:48;3.63;;;2.95;;
13807;SDS011;40769;51.512;5.494;2022-12-19T10:31:32;2.70;;;2.50;;
13807;SDS011;40769;51.512;5.494;2022-12-19T10:34:18;3.13;;;2.83;;
13807;SDS011;40769;51.512;5.494;2022-12-19T10:36:45;6.07;;;3.50;;
13807;SDS011;40769;51.512;5.494;2022-12-19T10:39:22;3.20;;;2.90;;
13807;SDS011;40769;51.512;5.494;2022-12-19T10:42:10;3.55;;;3.25;;
13807;SDS011;40769;51.512;5.494;2022-12-19T10:44:42;3.55;;;3.25;;
13807;SDS011;40769;51.512;5.494;2022-12-19T10:47:13;4.18;;;3.08;;
13807;SDS011;40769;51.512;5.494;2022-12-19T10:49:40;3.63;;;3.22;;
13807;SDS011;40769;51.512;5.494;2022-12-19T10:52:06;3.70;;;3.40;;
13807;SDS011;40769;51.512;5.494;2022-12-19T10:59:59;3.80;;;3.50;;
13807;SDS011;40769;51.512;5.494;2022-12-19T11:07:58;4.10;;;3.55;;
13807;SDS011;40769;51.512;5.494;2022-12-19T11:15:53;3.58;;;3.28;;
13807;SDS011;40769;51.512;5.494;2022-12-19T11:18:21;3.70;;;3.40;;
13807;SDS011;40769;51.512;5.494;2022-12-19T11:20:56;3.47;;;3.22;;
13807;SDS011;40769;51.512;5.494;2022-12-19T11:29:14;3.47;;;3.17;;
13807;SDS011;40769;51.512;5.494;2022-12-19T11:31:56;2.95;;;2.75;;
13807;SDS011;40769;51.512;5.494;2022-12-19T11:34:24;3.58;;;3.28;;
13807;SDS011;40769;51.512;5.494;2022-12-19T11:39:50;3.45;;;3.15;;
13807;SDS011;40769;51.512;5.494;2022-12-19T11:42:24;4.68;;;4.20;;
13807;SDS011;40769;51.512;5.494;2022-12-19T11:45:25;3.78;;;3.42;;
13807;SDS011;40769;51.512;5.494;2022-12-19T11:48:20;4.35;;;3.67;;
13807;SDS011;40769;51.512;5.494;2022-12-19T11:50:58;3.10;;;2.90;;
13807;SDS011;40769;51.512;5.494;2022-12-19T11:53:33;4.22;;;3.05;;
13807;SDS011;40769;51.512;5.494;2022-12-19T11:56:13;3.15;;;2.95;;
13807;SDS011;40769;51.512;5.494;2022-12-19T11:58:46;3.45;;;3.13;;
13807;SDS011;40769;51.512;5.494;2022-12-19T12:06:58;3.30;;;3.00;;
13807;SDS011;40769;51.512;5.494;2022-12-19T12:12:22;2.78;;;2.58;;
13807;SDS011;40769;51.512;5.494;2022-12-19T12:14:58;2.83;;;2.50;;
13807;SDS011;40769;51.512;5.494;2022-12-19T12:23:06;3.15;;;2.85;;
13807;SDS011;40769;51.512;5.494;2022-12-19T12:25:52;2.85;;;2.65;;
13807;SDS011;40769;51.512;5.494;2022-12-19T12:42:08;2.80;;;2.60;;
13807;SDS011;40769;51.512;5.494;2022-12-19T12:44:37;2.55;;;2.35;;
13807;SDS011;40769;51.512;5.494;2022-12-19T12:49:41;2.78;;;2.55;;
13807;SDS011;40769;51.512;5.494;2022-12-19T12:52:19;2.40;;;2.20;;
13807;SDS011;40769;51.512;5.494;2022-12-19T12:54:51;2.40;;;2.20;;
13807;SDS011;40769;51.512;5.494;2022-12-19T13:02:40;2.72;;;2.53;;
13807;SDS011;40769;51.512;5.494;2022-12-19T13:05:53;2.60;;;2.40;;
13807;SDS011;40769;51.512;5.494;2022-12-19T13:08:23;2.72;;;2.53;;
13807;SDS011;40769;51.512;5.494;2022-12-19T13:11:12;2.80;;;2.33;;
13807;SDS011;40769;51.512;5.494;2022-12-19T13:14:03;2.70;;;2.50;;
13807;SDS011;40769;51.512;5.494;2022-12-19T13:24:40;2.20;;;2.00;;
13807;SDS011;40769;51.512;5.494;2022-12-19T13:37:45;2.38;;;2.17;;
13807;SDS011;40769;51.512;5.494;2022-12-19T13:45:58;2.17;;;1.98;;
13807;SDS011;40769;51.512;5.494;2022-12-19T13:51:07;2.13;;;1.92;;
13807;SDS011;40769;51.512;5.494;2022-12-19T13:53:34;2.30;;;2.10;;
13807;SDS011;40769;51.512;5.494;2022-12-19T13:58:32;2.97;;;2.53;;
13807;SDS011;40769;51.512;5.494;2022-12-19T14:01:14;2.78;;;2.58;;
13807;SDS011;40769;51.512;5.494;2022-12-19T14:03:45;2.20;;;2.00;;
13807;SDS011;40769;51.512;5.494;2022-12-19T14:06:28;2.25;;;2.05;;
13807;SDS011;40769;51.512;5.494;2022-12-19T14:09:06;2.92;;;2.20;;
13807;SDS011;40769;51.512;5.494;2022-12-19T14:11:44;2.45;;;2.25;;
13807;SDS011;40769;51.512;5.494;2022-12-19T14:14:13;2.08;;;1.92;;
13807;SDS011;40769;51.512;5.494;2022-12-19T14:17:12;2.60;;;2.40;;
13807;SDS011;40769;51.512;5.494;2022-12-19T14:19:47;2.10;;;1.90;;
13807;SDS011;40769;51.512;5.494;2022-12-19T14:27:35;2.47;;;2.28;;
13807;SDS011;40769;51.512;5.494;2022-12-19T14:30:07;2.22;;;2.03;;
13807;SDS011;40769;51.512;5.494;2022-12-19T14:32:42;2.20;;;1.98;;
13807;SDS011;40769;51.512;5.494;2022-12-19T14:35:11;2.22;;;2.03;;
13807;SDS011;40769;51.512;5.494;2022-12-19T14:37:43;2.35;;;2.10;;
13807;SDS011;40769;51.512;5.494;2022-12-19T14:40:32;2.47;;;1.90;;
13807;SDS011;40769;51.512;5.494;2022-12-19T14:43:06;2.00;;;1.85;;
13807;SDS011;40769;51.512;5.494;2022-12-19T14:54:01;2.25;;;2.05;;
13807;SDS011;40769;51.512;5.494;2022-12-19T14:56:41;2.38;;;2.17;;
13807;SDS011;40769;51.512;5.494;2022-12-19T15:00:00;2.42;;;1.90;;
13807;SDS011;40769;51.512;5.494;2022-12-19T15:04:47;2.40;;;2.20;;
13807;SDS011;40769;51.512;5.494;2022-12-19T15:07:32;3.17;;;2.17;;
13807;SDS011;40769;51.512;5.494;2022-12-19T15:09:59;2.85;;;2.35;;
13807;SDS011;40769;51.512;5.494;2022-12-19T15:12:32;3.45;;;2.60;;
13807;SDS011;40769;51.512;5.494;2022-12-19T15:16:21;2.20;;;2.00;;
13807;SDS011;40769;51.512;5.494;2022-12-19T15:21:04;2.28;;;2.08;;
13807;SDS011;40769;51.512;5.494;2022-12-19T15:23:32;3.50;;;2.00;;
13807;SDS011;40769;51.512;5.494;2022-12-19T15:26:02;2.30;;;2.10;;
13807;SDS011;40769;51.512;5.494;2022-12-19T15:31:35;2.13;;;1.92;;
13807;SDS011;40769;51.512;5.494;2022-12-19T15:36:49;2.47;;;2.28;;
13807;SDS011;40769;51.512;5.494;2022-12-19T15:39:15;3.08;;;2.08;;
13807;SDS011;40769;51.512;5.494;2022-12-19T15:41:42;2.35;;;2.15;;
13807;SDS011;40769;51.512;5.494;2022-12-19T15:44:13;2.40;;;2.08;;
13807;SDS011;40769;51.512;5.494;2022-12-19T15:46:45;2.40;;;2.08;;
13807;SDS011;40769;51.512;5.494;2022-12-19T15:49:14;3.85;;;3.40;;
13807;SDS011;40769;51.512;5.494;2022-12-19T15:51:42;3.92;;;3.63;;
13807;SDS011;40769;51.512;5.494;2022-12-19T15:54:08;2.95;;;2.40;;
13807;SDS011;40769;51.512;5.494;2022-12-19T15:56:34;2.53;;;2.33;;
13807;SDS011;40769;51.512;5.494;2022-12-19T15:59:02;3.25;;;2.58;;
13807;SDS011;40769;51.512;5.494;2022-12-19T16:01:29;2.92;;;2.35;;
13807;SDS011;40769;51.512;5.494;2022-12-19T16:03:58;2.70;;;2.20;;
13807;SDS011;40769;51.512;5.494;2022-12-19T16:06:27;2.20;;;2.00;;
13807;SDS011;40769;51.512;5.494;2022-12-19T16:08:53;2.45;;;1.90;;
13807;SDS011;40769;51.512;5.494;2022-12-19T16:11:19;2.15;;;1.95;;
13807;SDS011;40769;51.512;5.494;2022-12-19T16:13:51;2.72;;;2.10;;
13807;SDS011;40769;51.512;5.494;2022-12-19T16:16:23;2.13;;;1.92;;
13807;SDS011;40769;51.512;5.494;2022-12-19T16:18:49;2.40;;;2.00;;
13807;SDS011;40769;51.512;5.494;2022-12-19T16:21:19;2.90;;;1.95;;
13807;SDS011;40769;51.512;5.494;2022-12-19T16:23:47;3.08;;;1.85;;
13807;SDS011;40769;51.512;5.494;2022-12-19T16:26:26;2.30;;;2.10;;
13807;SDS011;40769;51.512;5.494;2022-12-19T16:28:55;2.33;;;1.85;;
13807;SDS011;40769;51.512;5.494;2022-12-19T16:31:24;2.22;;;2.03;;
13807;SDS011;40769;51.512;5.494;2022-12-19T16:33:51;2.20;;;2.00;;
13807;SDS011;40769;51.512;5.494;2022-12-19T16:36:17;2.45;;;2.25;;
13807;SDS011;40769;51.512;5.494;2022-12-19T16:38:43;2.67;;;1.70;;
13807;SDS011;40769;51.512;5.494;2022-12-19T16:41:17;2.15;;;1.95;;
13807;SDS011;40769;51.512;5.494;2022-12-19T16:43:45;2.33;;;1.77;;
13807;SDS011;40769;51.512;5.494;2022-12-19T16:46:14;2.22;;;2.03;;
13807;SDS011;40769;51.512;5.494;2022-12-19T16:48:43;2.33;;;2.13;;
13807;SDS011;40769;51.512;5.494;2022-12-19T16:51:16;2.10;;;1.90;;
13807;SDS011;40769;51.512;5.494;2022-12-19T16:53:50;1.90;;;1.70;;
13807;SDS011;40769;51.512;5.494;2022-12-19T16:58:49;1.83;;;1.73;;
13807;SDS011;40769;51.512;5.494;2022-12-19T17:01:16;2.08;;;1.92;;
13807;SDS011;40769;51.512;5.494;2022-12-19T17:03:42;2.00;;;1.90;;
13807;SDS011;40769;51.512;5.494;2022-12-19T17:06:10;2.05;;;1.95;;
13807;SDS011;40769;51.512;5.494;2022-12-19T17:08:37;2.10;;;1.90;;
13807;SDS011;40769;51.512;5.494;2022-12-19T17:11:02;2.20;;;2.00;;
13807;SDS011;40769;51.512;5.494;2022-12-19T17:13:29;2.67;;;2.25;;
13807;SDS011;40769;51.512;5.494;2022-12-19T17:16:02;2.60;;;1.90;;
13807;SDS011;40769;51.512;5.494;2022-12-19T17:18:35;2.50;;;2.10;;
13807;SDS011;40769;51.512;5.494;2022-12-19T17:21:04;2.65;;;2.05;;
13807;SDS011;40769;51.512;5.494;2022-12-19T17:23:29;5.05;;;2.40;;
13807;SDS011;40769;51.512;5.494;2022-12-19T17:25:56;2.97;;;2.45;;
13807;SDS011;40769;51.512;5.494;2022-12-19T17:28:24;2.70;;;2.50;;
13807;SDS011;40769;51.512;5.494;2022-12-19T17:30:50;3.53;;;2.95;;
13807;SDS011;40769;51.512;5.494;2022-12-19T17:33:18;15.77;;;14.38;;
13807;SDS011;40769;51.512;5.494;2022-12-19T17:35:46;7.20;;;6.57;;
13807;SDS011;40769;51.512;5.494;2022-12-19T17:38:13;3.47;;;3.17;;
13807;SDS011;40769;51.512;5.494;2022-12-19T17:40:40;3.03;;;2.28;;
13807;SDS011;40769;51.512;5.494;2022-12-19T17:43:08;2.08;;;1.80;;
13807;SDS011;40769;51.512;5.494;2022-12-19T17:45:35;2.42;;;2.22;;
13807;SDS011;40769;51.512;5.494;2022-12-19T17:48:02;2.25;;;2.00;;
13807;SDS011;40769;51.512;5.494;2022-12-19T17:50:32;2.47;;;2.10;;
13807;SDS011;40769;51.512;5.494;2022-12-19T17:53:02;2.58;;;2.10;;
13807;SDS011;40769;51.512;5.494;2022-12-19T17:55:28;2.22;;;2.03;;
13807;SDS011;40769;51.512;5.494;2022-12-19T17:57:54;2.30;;;2.10;;
13807;SDS011;40769;51.512;5.494;2022-12-19T18:00:24;1.95;;;1.85;;